createdAt,value
2023-04-26T00:01:14.970Z,2.50
2023-04-26T00:11:15.619Z,2.80
2023-04-26T00:21:16.349Z,3.20
2023-04-26T00:31:17.120Z,3.70
2023-04-26T00:41:17.894Z,3.30
2023-04-26T00:51:18.914Z,3.30
2023-04-26T01:01:19.242Z,2.90
2023-04-26T01:11:19.893Z,3.30
2023-04-26T01:21:20.560Z,2.90
2023-04-26T01:41:21.859Z,3.20
2023-04-26T01:51:22.530Z,3.30
2023-04-26T02:01:23.625Z,3.10
2023-04-26T02:11:23.775Z,3.00
2023-04-26T02:21:24.371Z,3.30
2023-04-26T02:31:25.340Z,3.00
2023-04-26T02:41:25.604Z,3.00
2023-04-26T02:51:26.338Z,3.40
2023-04-26T03:11:27.668Z,3.00
2023-04-26T03:21:27.837Z,2.70
2023-04-26T03:31:28.724Z,2.80
2023-04-26T03:41:29.525Z,2.60
2023-04-26T03:51:29.549Z,2.60
2023-04-26T04:01:30.354Z,2.60
2023-04-26T04:11:30.585Z,2.60
2023-04-26T04:21:31.109Z,2.30
2023-04-26T04:31:31.698Z,2.50
2023-04-26T04:41:32.170Z,2.50
2023-04-26T04:51:32.758Z,2.80
2023-04-26T05:01:33.369Z,2.20
2023-04-26T05:11:33.923Z,2.40
2023-04-26T05:21:34.812Z,2.40
2023-04-26T05:31:35.348Z,2.40
2023-04-26T05:41:36.411Z,2.20
2023-04-26T05:51:37.216Z,2.30
2023-04-26T06:01:38.304Z,2.10
2023-04-26T06:11:39.481Z,2.50
2023-04-26T06:21:40.721Z,2.20
2023-04-26T06:31:41.916Z,2.10
2023-04-26T06:41:42.937Z,2.20
2023-04-26T06:51:44.080Z,2.30
2023-04-26T07:01:45.029Z,2.10
2023-04-26T07:11:45.909Z,1.90
2023-04-26T07:21:47.342Z,2.20
2023-04-26T07:31:48.411Z,2.70
2023-04-26T07:41:49.467Z,2.40
2023-04-26T07:51:50.500Z,2.30
2023-04-26T08:01:51.752Z,1.80
2023-04-26T08:11:53.388Z,2.20
2023-04-26T08:21:54.869Z,1.90
2023-04-26T08:31:56.374Z,2.00
2023-04-26T08:41:57.550Z,1.70
2023-04-26T08:51:58.784Z,2.10
2023-04-26T09:02:00.189Z,2.20
2023-04-26T09:12:01.424Z,2.00
2023-04-26T09:22:02.685Z,2.00
2023-04-26T09:32:03.715Z,1.90
2023-04-26T09:42:04.952Z,1.80
2023-04-26T09:52:06.267Z,2.90
2023-04-26T10:02:07.854Z,2.00
2023-04-26T10:12:08.683Z,1.80
2023-04-26T10:22:10.362Z,1.60
2023-04-26T10:32:11.032Z,1.90
2023-04-26T10:42:12.255Z,1.70
2023-04-26T10:52:13.506Z,1.70
2023-04-26T11:02:14.721Z,1.50
2023-04-26T11:12:16.118Z,1.60
2023-04-26T11:22:16.767Z,1.30
2023-04-26T11:32:17.730Z,1.50
2023-04-26T11:42:18.785Z,1.70
2023-04-26T11:52:20.041Z,1.30
2023-04-26T12:02:20.976Z,1.60
2023-04-26T12:12:21.887Z,1.60
2023-04-26T12:22:23.041Z,1.50
2023-04-26T12:42:24.878Z,1.40
2023-04-26T12:52:25.865Z,1.40
2023-04-26T13:12:28.063Z,1.10
2023-04-26T13:22:28.802Z,1.30
2023-04-26T13:32:29.841Z,1.70
2023-04-26T13:42:30.789Z,1.70
2023-04-26T13:52:31.985Z,1.50
2023-04-26T14:02:33.004Z,1.30
2023-04-26T14:12:33.746Z,1.40
2023-04-26T14:22:34.697Z,1.60
2023-04-26T14:32:35.890Z,1.50
2023-04-26T14:42:36.785Z,1.30
2023-04-26T14:52:37.387Z,1.10
2023-04-26T15:02:38.434Z,1.20
2023-04-26T15:22:40.338Z,1.40
2023-04-26T15:32:40.924Z,1.30
2023-04-26T15:42:41.672Z,1.20
2023-04-26T15:52:42.505Z,1.30
2023-04-26T16:02:43.505Z,1.40
2023-04-26T16:12:44.169Z,1.40
2023-04-26T16:22:45.408Z,1.30
2023-04-26T16:42:46.750Z,1.10
2023-04-26T16:52:47.546Z,1.20
2023-04-26T17:02:48.767Z,1.10
2023-04-26T17:12:49.267Z,1.10
2023-04-26T17:22:50.110Z,1.30
2023-04-26T17:32:50.860Z,1.30
2023-04-26T17:42:51.769Z,1.10
2023-04-26T17:52:52.385Z,1.30
2023-04-26T18:02:53.537Z,1.20
2023-04-26T18:12:54.270Z,1.40
2023-04-26T18:22:54.921Z,1.30
2023-04-26T18:32:55.932Z,1.10
2023-04-26T19:02:58.498Z,1.40
2023-04-26T19:12:58.911Z,1.70
2023-04-26T19:22:59.795Z,1.70
2023-04-26T19:33:00.419Z,2.00
2023-04-26T19:43:01.258Z,2.10
2023-04-26T19:53:01.821Z,2.10
2023-04-26T20:03:02.731Z,2.10
2023-04-26T20:13:03.761Z,1.60
2023-04-26T20:23:04.116Z,2.00
2023-04-26T20:33:04.752Z,2.10
2023-04-26T20:43:05.144Z,1.70
2023-04-26T20:53:05.855Z,2.00
2023-04-26T21:03:06.513Z,2.10
2023-04-26T21:13:06.862Z,2.10
2023-04-26T21:23:07.393Z,2.00
2023-04-26T21:33:08.016Z,2.40
2023-04-26T21:43:08.493Z,2.20
2023-04-26T21:53:08.983Z,2.10
2023-04-26T22:03:09.609Z,2.70
2023-04-26T22:13:09.954Z,2.80
2023-04-26T22:23:10.562Z,2.70
2023-04-26T22:33:10.987Z,2.60
2023-04-26T22:43:11.260Z,2.40
2023-04-26T22:53:12.118Z,2.60
2023-04-26T23:03:12.191Z,3.60
2023-04-26T23:13:12.722Z,3.00
2023-04-26T23:23:13.006Z,2.90
2023-04-26T23:33:13.538Z,3.80
2023-04-26T23:43:13.878Z,5.10
2023-04-26T23:53:14.148Z,4.20
